Time;durP1;ratioP1;P1;durP2;ratioP2;P2;SDS_P1;SDS_P2;PMS_P1;PMS_P2;Temp;Humidity;BMP_temperature;BMP_pressure;BME280_temperature;BME280_humidity;BME280_pressure;Samples;Min_cycle;Max_cycle;Signal;HPM_P1;HPM_P2
2022/01/27 00:00:49;;;;;;;19.33;9.18;;;;;;;;;;5011206;28;20568;-59
2022/01/27 00:03:29;;;;;;;25.27;11.88;;;;;;;;;;5010318;28;20029;-59
2022/01/27 00:05:59;;;;;;;21.55;10.45;;;;;;;;;;5011229;28;20022;-58
2022/01/27 00:08:32;;;;;;;19.75;9.90;;;;;;;;;;5009818;28;20044;-59
2022/01/27 00:11:07;;;;;;;22.47;10.70;;;;;;;;;;5007932;28;20113;-59
2022/01/27 00:13:43;;;;;;;25.10;9.82;;;;;;;;;;5007805;28;20375;-59
2022/01/27 00:16:17;;;;;;;26.17;10.68;;;;;;;;;;4990529;28;20041;-58
2022/01/27 00:18:45;;;;;;;18.70;9.95;;;;;;;;;;5009237;28;20041;-59
2022/01/27 00:21:10;;;;;;;20.77;9.60;;;;;;;;;;4994726;28;20092;-58
2022/01/27 00:23:37;;;;;;;21.02;10.65;;;;;;;;;;4992609;28;20446;-60
2022/01/27 00:26:03;;;;;;;20.83;9.77;;;;;;;;;;5009947;28;20038;-59
2022/01/27 00:28:29;;;;;;;22.13;9.73;;;;;;;;;;5007164;28;20038;-56
2022/01/27 00:30:54;;;;;;;21.60;10.27;;;;;;;;;;5011409;28;20096;-58
2022/01/27 00:33:20;;;;;;;23.40;9.93;;;;;;;;;;5011273;28;20116;-58
2022/01/27 00:35:45;;;;;;;21.13;10.15;;;;;;;;;;5010559;28;20041;-59
2022/01/27 00:38:11;;;;;;;20.13;10.23;;;;;;;;;;5010099;28;20510;-57
2022/01/27 00:40:36;;;;;;;21.25;10.40;;;;;;;;;;5012914;28;20025;-56
2022/01/27 00:43:02;;;;;;;22.65;10.55;;;;;;;;;;5008035;28;20038;-59
2022/01/27 00:45:30;;;;;;;23.55;11.20;;;;;;;;;;5011077;28;20053;-59
2022/01/27 00:47:55;;;;;;;23.92;11.20;;;;;;;;;;5009719;28;20045;-59
2022/01/27 00:50:21;;;;;;;26.42;10.77;;;;;;;;;;5010507;28;20026;-59
2022/01/27 00:52:51;;;;;;;24.38;10.98;;;;;;;;;;5009277;28;20450;-58
2022/01/27 00:55:17;;;;;;;20.83;10.25;;;;;;;;;;5010803;28;20042;-58
2022/01/27 01:00:13;;;;;;;21.17;10.38;;;;;;;;;;5007073;28;20112;-59
2022/01/27 01:02:48;;;;;;;22.80;10.50;;;;;;;;;;4991409;28;20040;-56
2022/01/27 01:07:57;;;;;;;21.00;9.70;;;;;;;;;;4634749;28;10001181;-57
2022/01/27 01:11:12;;;;;;;22.02;10.15;;;;;;;;;;688903;28;10002210;-60
2022/01/27 01:15:49;;;;;;;21.30;10.07;;;;;;;;;;5010164;28;20034;-59
2022/01/27 01:34:24;;;;;;;23.63;11.15;;;;;;;;;;5008761;28;20116;-60
2022/01/27 01:39:22;;;;;;;22.63;10.73;;;;;;;;;;5008063;28;20125;-60
2022/01/27 01:41:48;;;;;;;24.30;10.20;;;;;;;;;;5009162;28;20102;-59
2022/01/27 01:44:13;;;;;;;20.60;9.95;;;;;;;;;;5008593;28;20065;-58
2022/01/27 01:46:39;;;;;;;25.17;12.20;;;;;;;;;;5007459;28;20436;-60
2022/01/27 01:49:05;;;;;;;25.38;11.68;;;;;;;;;;5009010;28;20104;-58
2022/01/27 01:51:34;;;;;;;23.52;10.55;;;;;;;;;;5008623;28;20038;-58
2022/01/27 01:53:59;;;;;;;25.92;11.13;;;;;;;;;;5008364;28;20037;-58
2022/01/27 01:56:25;;;;;;;27.90;11.52;;;;;;;;;;5009507;28;20055;-58
2022/01/27 01:58:51;;;;;;;26.27;11.40;;;;;;;;;;5007383;28;20466;-57
2022/01/27 02:01:17;;;;;;;28.50;11.75;;;;;;;;;;5014644;28;20381;-58
2022/01/27 02:03:44;;;;;;;26.38;11.13;;;;;;;;;;5012527;28;20036;-58
2022/01/27 02:06:17;;;;;;;21.50;9.95;;;;;;;;;;5012298;28;20030;-59
2022/01/27 02:09:03;;;;;;;27.92;11.48;;;;;;;;;;5010275;28;20025;-57
2022/01/27 02:19:43;;;;;;;28.42;12.02;;;;;;;;;;5011561;28;20048;-58
2022/01/27 02:22:08;;;;;;;25.73;10.82;;;;;;;;;;5011766;28;20022;-59
2022/01/27 02:24:35;;;;;;;28.33;11.95;;;;;;;;;;5012610;28;20029;-58
2022/01/27 02:27:02;;;;;;;25.13;11.00;;;;;;;;;;5009841;28;20038;-58
2022/01/27 02:29:28;;;;;;;24.23;11.82;;;;;;;;;;5013035;28;20034;-59
2022/01/27 02:31:57;;;;;;;23.55;11.38;;;;;;;;;;5009016;28;20042;-58
2022/01/27 02:34:23;;;;;;;23.08;10.80;;;;;;;;;;5010881;28;20481;-59
2022/01/27 02:36:49;;;;;;;24.58;11.13;;;;;;;;;;5011514;28;20232;-59
2022/01/27 02:39:15;;;;;;;25.27;11.40;;;;;;;;;;5008852;28;20034;-59
2022/01/27 02:42:13;;;;;;;23.42;11.35;;;;;;;;;;5011865;28;20037;-59
2022/01/27 02:44:55;;;;;;;27.13;11.30;;;;;;;;;;5011873;28;20033;-59
2022/01/27 02:47:22;;;;;;;23.98;10.88;;;;;;;;;;5012721;28;20025;-56
2022/01/27 02:49:48;;;;;;;28.70;12.02;;;;;;;;;;5014308;28;20022;-58
2022/01/27 02:52:14;;;;;;;24.00;11.10;;;;;;;;;;5014429;28;20466;-59
2022/01/27 02:54:39;;;;;;;23.75;11.15;;;;;;;;;;5012494;28;20041;-59
2022/01/27 02:57:05;;;;;;;26.23;11.93;;;;;;;;;;5013211;28;20032;-58
2022/01/27 02:59:31;;;;;;;26.05;11.02;;;;;;;;;;5013991;28;20084;-52
2022/01/27 03:01:56;;;;;;;26.25;10.88;;;;;;;;;;5012279;28;20030;-59
2022/01/27 03:04:23;;;;;;;26.35;11.15;;;;;;;;;;5013439;28;20111;-56
2022/01/27 03:06:49;;;;;;;24.25;12.00;;;;;;;;;;5012267;28;20026;-57
2022/01/27 03:09:15;;;;;;;27.38;11.77;;;;;;;;;;5011357;28;20038;-54
2022/01/27 03:11:49;;;;;;;26.45;11.32;;;;;;;;;;5011215;28;20131;-55
2022/01/27 03:14:18;;;;;;;28.27;11.77;;;;;;;;;;5011753;28;20025;-59
2022/01/27 03:16:44;;;;;;;23.13;10.82;;;;;;;;;;5011730;28;20030;-57
2022/01/27 03:19:10;;;;;;;26.23;11.32;;;;;;;;;;5012482;28;20056;-61
2022/01/27 03:21:47;;;;;;;28.25;10.70;;;;;;;;;;3945607;28;10001996;-55
2022/01/27 03:24:12;;;;;;;25.77;11.35;;;;;;;;;;1725970;28;10002082;-61
2022/01/27 03:26:39;;;;;;;22.50;10.57;;;;;;;;;;5009353;28;20482;-57
2022/01/27 03:29:05;;;;;;;23.00;10.95;;;;;;;;;;5014428;28;20040;-60
2022/01/27 03:31:30;;;;;;;29.23;12.02;;;;;;;;;;5011428;28;20030;-58
2022/01/27 03:33:55;;;;;;;28.15;12.20;;;;;;;;;;5012608;28;20521;-59
2022/01/27 03:36:22;;;;;;;30.75;11.90;;;;;;;;;;4995320;28;20411;-60
2022/01/27 03:38:48;;;;;;;26.38;11.25;;;;;;;;;;5010535;28;20042;-57
2022/01/27 03:41:18;;;;;;;27.42;11.43;;;;;;;;;;5010588;28;20068;-52
2022/01/27 03:43:44;;;;;;;26.77;11.20;;;;;;;;;;5011704;28;20081;-59
2022/01/27 03:46:10;;;;;;;28.05;11.60;;;;;;;;;;5010851;28;20029;-59
2022/01/27 03:48:35;;;;;;;24.75;11.25;;;;;;;;;;5010314;28;20038;-56
2022/01/27 03:51:01;;;;;;;25.23;11.30;;;;;;;;;;5010059;28;20071;-59
2022/01/27 03:53:27;;;;;;;26.08;10.23;;;;;;;;;;5012108;28;20041;-58
2022/01/27 03:55:52;;;;;;;21.60;10.27;;;;;;;;;;5009897;28;20095;-59
2022/01/27 03:58:18;;;;;;;21.92;10.50;;;;;;;;;;5010552;28;20390;-57
2022/01/27 04:00:43;;;;;;;22.40;10.65;;;;;;;;;;5009041;28;20083;-57
2022/01/27 04:03:09;;;;;;;24.50;10.75;;;;;;;;;;5012369;28;20041;-59
2022/01/27 04:05:53;;;;;;;26.75;10.75;;;;;;;;;;5011135;28;20120;-59
2022/01/27 04:08:19;;;;;;;26.42;10.32;;;;;;;;;;5010814;28;20022;-57
2022/01/27 04:10:45;;;;;;;23.23;10.32;;;;;;;;;;5010471;28;20038;-59
2022/01/27 04:13:11;;;;;;;28.05;10.75;;;;;;;;;;5010711;28;20109;-60
2022/01/27 04:15:39;;;;;;;26.60;10.98;;;;;;;;;;5011905;28;20034;-60
2022/01/27 04:18:05;;;;;;;28.30;11.35;;;;;;;;;;5010496;28;20034;-59
2022/01/27 04:20:31;;;;;;;26.70;10.52;;;;;;;;;;5012431;28;20081;-60
2022/01/27 04:22:56;;;;;;;28.30;11.23;;;;;;;;;;5011249;28;20038;-60
2022/01/27 04:25:22;;;;;;;28.38;11.55;;;;;;;;;;5008590;28;20034;-59
2022/01/27 04:27:51;;;;;;;26.02;11.60;;;;;;;;;;5009807;28;20046;-59
2022/01/27 04:30:20;;;;;;;25.17;11.27;;;;;;;;;;5009396;28;20564;-57
2022/01/27 04:32:51;;;;;;;27.80;11.20;;;;;;;;;;5010215;28;20489;-57
2022/01/27 04:35:19;;;;;;;26.20;11.35;;;;;;;;;;5010460;28;20037;-55
2022/01/27 04:40:38;;;;;;;28.80;11.45;;;;;;;;;;5008525;28;20037;-57
2022/01/27 04:48:43;;;;;;;23.08;10.55;;;;;;;;;;5010767;28;20057;-59
2022/01/27 04:51:12;;;;;;;25.70;11.02;;;;;;;;;;5011684;28;20041;-59
2022/01/27 04:53:44;;;;;;;24.25;10.38;;;;;;;;;;5010201;28;20533;-59
2022/01/27 04:56:13;;;;;;;25.80;11.20;;;;;;;;;;5010281;28;20033;-58
2022/01/27 04:58:40;;;;;;;23.90;10.60;;;;;;;;;;5009262;28;20515;-59
2022/01/27 05:01:06;;;;;;;26.80;10.73;;;;;;;;;;5010645;28;20069;-53
2022/01/27 05:06:00;;;;;;;23.92;10.73;;;;;;;;;;5010256;28;20109;-59
2022/01/27 05:08:26;;;;;;;19.30;9.48;;;;;;;;;;5009831;28;20132;-58
2022/01/27 05:11:16;;;;;;;25.17;10.15;;;;;;;;;;5009300;28;20087;-60
2022/01/27 05:13:49;;;;;;;22.63;9.65;;;;;;;;;;5009527;28;20038;-60
2022/01/27 05:16:15;;;;;;;21.90;10.48;;;;;;;;;;5008301;28;20045;-59
2022/01/27 05:18:40;;;;;;;23.90;11.27;;;;;;;;;;5009936;28;20053;-60
2022/01/27 05:21:06;;;;;;;21.50;9.68;;;;;;;;;;5009917;28;20036;-51
2022/01/27 05:23:31;;;;;;;26.92;10.30;;;;;;;;;;5010551;28;20397;-49
2022/01/27 05:25:57;;;;;;;25.85;10.40;;;;;;;;;;5009563;28;20080;-52
2022/01/27 05:28:22;;;;;;;24.80;10.65;;;;;;;;;;5009259;28;20347;-52
2022/01/27 05:30:48;;;;;;;22.83;10.15;;;;;;;;;;5010076;28;20445;-49
2022/01/27 05:33:13;;;;;;;23.33;10.65;;;;;;;;;;5009761;28;20092;-51
2022/01/27 05:35:38;;;;;;;26.42;10.00;;;;;;;;;;5013208;28;20030;-51
2022/01/27 05:38:10;;;;;;;21.17;8.40;;;;;;;;;;1494794;28;10023636;-52
2022/01/27 05:40:35;;;;;;;25.63;10.20;;;;;;;;;;3964568;28;10001015;-53
2022/01/27 05:43:01;;;;;;;27.80;11.05;;;;;;;;;;5013504;28;20501;-50
2022/01/27 05:45:26;;;;;;;21.13;9.93;;;;;;;;;;5013780;28;20014;-51
2022/01/27 05:47:51;;;;;;;26.88;9.82;;;;;;;;;;5012909;28;20033;-53
2022/01/27 05:50:17;;;;;;;24.05;10.30;;;;;;;;;;5013132;28;20376;-49
2022/01/27 05:52:42;;;;;;;25.05;9.45;;;;;;;;;;4994994;28;20038;-51
2022/01/27 05:55:08;;;;;;;26.05;10.23;;;;;;;;;;5012803;28;20540;-49
2022/01/27 05:57:33;;;;;;;21.27;9.48;;;;;;;;;;5012868;28;20407;-50
2022/01/27 05:59:59;;;;;;;24.02;9.18;;;;;;;;;;5012426;28;20482;-49
2022/01/27 06:02:24;;;;;;;20.70;8.93;;;;;;;;;;5011916;28;20076;-53
2022/01/27 06:04:50;;;;;;;22.73;8.90;;;;;;;;;;5014269;28;20036;-50
2022/01/27 06:07:15;;;;;;;21.45;8.93;;;;;;;;;;5013149;28;20429;-51
2022/01/27 06:09:41;;;;;;;20.45;8.68;;;;;;;;;;5013950;28;20038;-48
2022/01/27 06:12:07;;;;;;;20.83;8.50;;;;;;;;;;5012472;28;20026;-51
2022/01/27 06:14:32;;;;;;;22.10;8.80;;;;;;;;;;5013881;28;20096;-49
2022/01/27 06:16:57;;;;;;;20.92;8.60;;;;;;;;;;5013658;28;20513;-56
2022/01/27 06:19:26;;;;;;;23.17;8.93;;;;;;;;;;5012827;28;20134;-48
2022/01/27 06:21:52;;;;;;;20.50;7.95;;;;;;;;;;4995384;28;20025;-51
2022/01/27 06:24:17;;;;;;;20.58;8.27;;;;;;;;;;5010486;28;20088;-48
2022/01/27 06:26:42;;;;;;;23.10;8.63;;;;;;;;;;5010651;28;20060;-49
2022/01/27 06:29:08;;;;;;;24.05;8.85;;;;;;;;;;5011533;28;20108;-47
2022/01/27 06:31:33;;;;;;;20.83;8.35;;;;;;;;;;5011362;28;20040;-49
2022/01/27 06:33:59;;;;;;;20.13;8.45;;;;;;;;;;5011260;28;20032;-48
2022/01/27 06:36:24;;;;;;;22.38;9.55;;;;;;;;;;5011898;28;20045;-48
2022/01/27 06:38:49;;;;;;;23.05;8.80;;;;;;;;;;5011385;28;20065;-50
2022/01/27 06:41:15;;;;;;;22.70;8.68;;;;;;;;;;5011787;28;20099;-49
2022/01/27 06:43:40;;;;;;;22.13;8.07;;;;;;;;;;5014976;28;20489;-52
2022/01/27 06:46:06;;;;;;;22.10;9.00;;;;;;;;;;5010653;28;20100;-52
2022/01/27 06:48:31;;;;;;;24.70;9.18;;;;;;;;;;5012537;28;20038;-49
2022/01/27 06:50:56;;;;;;;18.38;7.97;;;;;;;;;;5012151;28;20406;-47
2022/01/27 06:53:23;;;;;;;17.48;8.15;;;;;;;;;;5012128;28;20029;-51
2022/01/27 06:55:49;;;;;;;19.95;8.23;;;;;;;;;;5011015;28;20030;-49
2022/01/27 06:58:14;;;;;;;19.98;8.98;;;;;;;;;;5012166;28;20026;-48
2022/01/27 07:00:40;;;;;;;19.95;8.48;;;;;;;;;;5013006;28;20043;-48
2022/01/27 07:03:05;;;;;;;21.08;7.88;;;;;;;;;;5009624;28;20037;-48
2022/01/27 07:05:32;;;;;;;22.85;8.73;;;;;;;;;;5009949;28;20022;-48
2022/01/27 07:07:58;;;;;;;23.48;8.48;;;;;;;;;;5011706;28;20022;-49
2022/01/27 07:10:23;;;;;;;17.95;7.97;;;;;;;;;;5010837;28;20033;-50
2022/01/27 07:12:49;;;;;;;17.23;8.38;;;;;;;;;;5011834;28;20030;-50
2022/01/27 07:15:14;;;;;;;21.38;8.57;;;;;;;;;;5009842;28;20135;-51
2022/01/27 07:17:40;;;;;;;23.08;8.38;;;;;;;;;;5010742;28;20033;-47
2022/01/27 07:20:07;;;;;;;20.92;8.27;;;;;;;;;;5010789;28;20103;-53
2022/01/27 07:22:33;;;;;;;20.58;8.20;;;;;;;;;;5009654;28;20034;-53
2022/01/27 07:25:13;;;;;;;24.60;8.35;;;;;;;;;;1088872;28;10022731;-46
2022/01/27 07:27:38;;;;;;;19.65;8.40;;;;;;;;;;4665560;28;10001192;-50
2022/01/27 07:30:04;;;;;;;17.45;7.82;;;;;;;;;;5011549;28;20025;-50
2022/01/27 07:32:29;;;;;;;21.13;8.27;;;;;;;;;;5008539;28;20072;-50
2022/01/27 07:34:55;;;;;;;18.48;8.30;;;;;;;;;;5011133;28;20044;-51
2022/01/27 07:37:20;;;;;;;15.63;7.85;;;;;;;;;;5010784;28;20521;-47
2022/01/27 07:39:46;;;;;;;18.38;8.65;;;;;;;;;;5011617;28;20122;-50
2022/01/27 07:42:11;;;;;;;18.65;8.25;;;;;;;;;;5012087;28;20100;-52
2022/01/27 07:44:37;;;;;;;17.92;7.93;;;;;;;;;;5012314;28;20460;-48
2022/01/27 07:47:03;;;;;;;19.73;7.75;;;;;;;;;;5011856;28;20033;-53
2022/01/27 07:49:29;;;;;;;15.90;7.63;;;;;;;;;;5011374;28;20041;-53
2022/01/27 07:51:54;;;;;;;17.08;7.97;;;;;;;;;;5009026;28;20061;-51
2022/01/27 07:54:20;;;;;;;15.75;7.72;;;;;;;;;;5008641;28;20550;-54
2022/01/27 07:56:45;;;;;;;15.65;7.43;;;;;;;;;;5009072;28;20875;-51
2022/01/27 07:59:11;;;;;;;20.27;8.60;;;;;;;;;;5007794;28;20168;-47
2022/01/27 08:01:36;;;;;;;21.83;8.18;;;;;;;;;;4992722;28;20101;-53
2022/01/27 08:04:02;;;;;;;19.33;8.23;;;;;;;;;;5009729;28;20385;-47
2022/01/27 08:06:27;;;;;;;16.42;7.97;;;;;;;;;;5010363;28;20029;-48
2022/01/27 08:08:53;;;;;;;21.50;8.25;;;;;;;;;;5009709;28;20041;-51
2022/01/27 08:11:19;;;;;;;16.90;7.65;;;;;;;;;;5010213;28;20041;-52
2022/01/27 08:13:45;;;;;;;20.90;8.50;;;;;;;;;;5012364;28;20029;-49
2022/01/27 08:16:10;;;;;;;16.77;7.70;;;;;;;;;;5010790;28;20029;-50
2022/01/27 08:18:36;;;;;;;17.27;7.97;;;;;;;;;;5009124;28;20537;-49
2022/01/27 08:21:02;;;;;;;19.13;8.15;;;;;;;;;;5008600;28;20638;-53
2022/01/27 08:23:28;;;;;;;14.70;7.68;;;;;;;;;;5011337;28;20505;-53
2022/01/27 08:26:03;;;;;;;15.48;7.60;;;;;;;;;;5008540;28;20037;-51
2022/01/27 08:28:35;;;;;;;19.90;7.93;;;;;;;;;;5007623;28;20032;-50
2022/01/27 08:31:02;;;;;;;19.13;7.80;;;;;;;;;;5010616;28;20505;-49
2022/01/27 08:33:29;;;;;;;22.35;9.73;;;;;;;;;;5009150;28;20022;-50
2022/01/27 08:35:57;;;;;;;24.08;9.20;;;;;;;;;;5010482;28;20050;-47
2022/01/27 08:38:22;;;;;;;20.02;9.35;;;;;;;;;;5010233;28;20018;-47
2022/01/27 08:40:47;;;;;;;20.25;9.45;;;;;;;;;;5009069;28;20036;-50
2022/01/27 08:43:13;;;;;;;17.25;9.00;;;;;;;;;;5009385;28;20032;-51
2022/01/27 08:45:39;;;;;;;19.77;9.20;;;;;;;;;;5009702;28;20549;-48
2022/01/27 08:48:10;;;;;;;21.67;9.57;;;;;;;;;;4991247;28;20033;-50
2022/01/27 08:50:35;;;;;;;19.17;9.20;;;;;;;;;;5008789;28;20478;-47
2022/01/27 08:53:01;;;;;;;18.00;8.63;;;;;;;;;;5010446;28;20056;-50
2022/01/27 08:55:27;;;;;;;18.08;8.98;;;;;;;;;;5007753;28;20026;-47
2022/01/27 08:57:52;;;;;;;19.25;9.40;;;;;;;;;;5008959;28;20083;-49
2022/01/27 09:00:21;;;;;;;15.48;7.80;;;;;;;;;;5007471;28;20030;-50
2022/01/27 09:02:47;;;;;;;20.58;8.75;;;;;;;;;;5009515;28;20029;-51
2022/01/27 09:05:13;;;;;;;20.05;8.32;;;;;;;;;;5007716;28;20038;-48
2022/01/27 09:07:39;;;;;;;21.38;8.75;;;;;;;;;;5007767;28;20088;-49
2022/01/27 09:10:06;;;;;;;17.02;8.38;;;;;;;;;;5008654;28;20026;-50
2022/01/27 09:12:31;;;;;;;20.13;9.05;;;;;;;;;;5008271;28;20524;-50
2022/01/27 09:14:58;;;;;;;20.08;8.32;;;;;;;;;;5010331;28;20030;-49
2022/01/27 09:17:26;;;;;;;18.38;8.25;;;;;;;;;;5008580;28;20109;-47
2022/01/27 09:19:52;;;;;;;20.70;8.55;;;;;;;;;;5009587;28;20504;-51
2022/01/27 09:22:19;;;;;;;18.52;8.15;;;;;;;;;;5008449;28;20442;-48
2022/01/27 09:25:06;;;;;;;13.68;6.93;;;;;;;;;;2807312;28;10003128;-45
2022/01/27 09:27:31;;;;;;;20.40;9.10;;;;;;;;;;3625409;28;10001172;-51
2022/01/27 09:29:57;;;;;;;19.65;9.00;;;;;;;;;;5007912;28;20026;-49
2022/01/27 09:32:25;;;;;;;19.50;8.73;;;;;;;;;;5009586;28;20490;-51
2022/01/27 09:34:51;;;;;;;21.25;9.52;;;;;;;;;;5009112;28;20021;-51
2022/01/27 09:37:17;;;;;;;20.27;9.48;;;;;;;;;;5008633;28;20134;-52
2022/01/27 09:39:43;;;;;;;22.75;9.48;;;;;;;;;;5009521;28;20034;-48
2022/01/27 09:42:09;;;;;;;20.85;10.27;;;;;;;;;;5007940;28;20486;-50
2022/01/27 09:44:36;;;;;;;21.35;9.68;;;;;;;;;;5007661;28;20018;-49
2022/01/27 09:47:07;;;;;;;20.98;9.52;;;;;;;;;;5007775;28;20079;-48
2022/01/27 09:49:41;;;;;;;20.75;9.60;;;;;;;;;;5006851;28;20034;-51
2022/01/27 09:52:07;;;;;;;22.02;9.00;;;;;;;;;;5010448;28;20046;-48
2022/01/27 09:54:34;;;;;;;19.40;9.23;;;;;;;;;;5007942;28;20545;-51
2022/01/27 09:57:00;;;;;;;20.48;8.93;;;;;;;;;;5008531;28;20405;-49
2022/01/27 09:59:25;;;;;;;21.58;8.77;;;;;;;;;;5006889;28;20041;-50
2022/01/27 10:01:57;;;;;;;19.00;8.60;;;;;;;;;;5008309;28;20041;-50
2022/01/27 10:04:25;;;;;;;18.05;8.73;;;;;;;;;;5007789;28;20040;-51
2022/01/27 10:06:57;;;;;;;20.98;9.00;;;;;;;;;;5009232;28;20037;-51
2022/01/27 10:09:29;;;;;;;21.10;8.88;;;;;;;;;;5006145;28;20022;-49
2022/01/27 10:11:55;;;;;;;18.40;8.18;;;;;;;;;;4991713;28;20376;-44
2022/01/27 10:14:34;;;;;;;20.20;9.27;;;;;;;;;;4991923;28;20069;-48
2022/01/27 10:17:03;;;;;;;16.58;8.07;;;;;;;;;;5009798;28;20072;-49
2022/01/27 10:19:29;;;;;;;16.58;8.23;;;;;;;;;;5008120;28;20127;-50
2022/01/27 10:22:00;;;;;;;16.40;7.50;;;;;;;;;;4995362;28;20083;-49
2022/01/27 10:24:28;;;;;;;19.30;8.10;;;;;;;;;;4993290;28;20025;-50
2022/01/27 10:27:34;;;;;;;15.13;7.68;;;;;;;;;;5009968;28;20478;-50
2022/01/27 10:32:44;;;;;;;16.45;8.40;;;;;;;;;;5010572;28;20359;-51
2022/01/27 10:35:11;;;;;;;16.27;8.38;;;;;;;;;;5009811;28;20061;-48
2022/01/27 10:38:00;;;;;;;16.25;7.38;;;;;;;;;;5009631;28;20042;-53
2022/01/27 10:40:52;;;;;;;17.63;7.22;;;;;;;;;;5011527;28;20030;-50
2022/01/27 10:43:21;;;;;;;13.40;7.20;;;;;;;;;;4993097;28;20038;-48
2022/01/27 10:46:07;;;;;;;18.98;8.10;;;;;;;;;;5008902;28;20030;-48
2022/01/27 10:48:35;;;;;;;14.30;6.50;;;;;;;;;;5010028;28;20044;-48
2022/01/27 10:53:53;;;;;;;14.05;6.82;;;;;;;;;;5004629;28;21353;-50
2022/01/27 10:56:28;;;;;;;13.00;6.55;;;;;;;;;;5010303;28;20014;-49
2022/01/27 10:58:56;;;;;;;14.05;6.47;;;;;;;;;;5011112;28;20113;-47
2022/01/27 11:01:28;;;;;;;10.77;6.18;;;;;;;;;;5012875;28;20088;-50
2022/01/27 11:03:55;;;;;;;13.77;6.97;;;;;;;;;;5011048;28;20540;-48
2022/01/27 11:06:24;;;;;;;13.02;7.03;;;;;;;;;;5010933;28;20026;-48
2022/01/27 11:08:54;;;;;;;12.00;6.68;;;;;;;;;;4994306;28;20125;-51
2022/01/27 11:11:24;;;;;;;12.05;6.35;;;;;;;;;;5012298;28;20130;-50
2022/01/27 11:13:51;;;;;;;13.05;6.53;;;;;;;;;;4992700;28;20030;-48
2022/01/27 11:16:21;;;;;;;12.70;7.22;;;;;;;;;;4993576;28;20029;-51
2022/01/27 11:18:47;;;;;;;13.77;6.68;;;;;;;;;;5010493;28;20057;-49
2022/01/27 11:21:28;;;;;;;12.85;6.43;;;;;;;;;;5010837;28;20045;-47
2022/01/27 11:24:13;;;;;;;14.10;6.90;;;;;;;;;;3717179;28;10020796;-52
2022/01/27 11:26:40;;;;;;;14.85;6.47;;;;;;;;;;2419013;28;10001993;-48
2022/01/27 11:29:08;;;;;;;13.55;5.90;;;;;;;;;;5010744;28;20030;-51
2022/01/27 11:32:06;;;;;;;12.02;6.65;;;;;;;;;;4989634;28;20398;-51
2022/01/27 11:34:46;;;;;;;11.98;5.97;;;;;;;;;;5011066;28;20046;-50
2022/01/27 11:37:13;;;;;;;12.40;5.75;;;;;;;;;;5010459;28;20501;-48
2022/01/27 11:39:53;;;;;;;12.75;6.22;;;;;;;;;;5007978;28;20061;-52
2022/01/27 11:42:42;;;;;;;13.30;6.28;;;;;;;;;;5011811;28;20030;-50
2022/01/27 11:45:33;;;;;;;11.15;5.70;;;;;;;;;;5010974;28;20029;-48
2022/01/27 11:48:07;;;;;;;12.52;6.20;;;;;;;;;;4991772;28;20034;-51
2022/01/27 11:50:36;;;;;;;13.40;6.63;;;;;;;;;;5011977;28;20026;-48
2022/01/27 11:53:07;;;;;;;13.95;5.80;;;;;;;;;;5009949;28;20105;-52
2022/01/27 11:55:33;;;;;;;11.73;6.22;;;;;;;;;;5011882;28;20046;-53
2022/01/27 11:58:21;;;;;;;12.02;6.78;;;;;;;;;;5012683;28;20026;-52
2022/01/27 12:01:06;;;;;;;11.45;5.95;;;;;;;;;;5012998;28;20069;-47
2022/01/27 12:03:32;;;;;;;13.98;6.03;;;;;;;;;;5010760;28;20071;-49
2022/01/27 12:06:11;;;;;;;12.27;5.55;;;;;;;;;;5010927;28;20100;-51
2022/01/27 12:08:36;;;;;;;10.25;5.55;;;;;;;;;;5011345;28;20087;-48
2022/01/27 12:11:06;;;;;;;10.63;5.82;;;;;;;;;;5008710;28;20468;-50
2022/01/27 12:19:00;;;;;;;11.65;5.80;;;;;;;;;;5008908;28;20355;-48
2022/01/27 12:21:45;;;;;;;12.02;5.85;;;;;;;;;;4991616;28;20433;-48
2022/01/27 12:24:32;;;;;;;10.73;5.75;;;;;;;;;;4994108;28;20453;-48
2022/01/27 12:27:09;;;;;;;11.68;5.70;;;;;;;;;;5006839;28;20049;-48
2022/01/27 12:29:39;;;;;;;9.80;5.95;;;;;;;;;;5009012;28;20034;-50
2022/01/27 12:32:08;;;;;;;11.07;5.75;;;;;;;;;;5009177;28;20529;-49
2022/01/27 12:34:35;;;;;;;11.07;5.43;;;;;;;;;;5007186;28;20021;-48
2022/01/27 12:37:11;;;;;;;13.13;5.95;;;;;;;;;;5008905;28;20525;-49
2022/01/27 12:39:42;;;;;;;12.48;5.93;;;;;;;;;;5008576;28;20054;-48
2022/01/27 12:42:15;;;;;;;11.25;5.95;;;;;;;;;;4991778;28;20084;-53
2022/01/27 12:44:57;;;;;;;11.32;5.82;;;;;;;;;;5009191;28;20025;-49
2022/01/27 12:47:23;;;;;;;12.52;6.25;;;;;;;;;;4995317;28;20060;-51
2022/01/27 12:50:03;;;;;;;14.23;5.88;;;;;;;;;;5009138;28;20585;-53
2022/01/27 12:52:32;;;;;;;10.73;5.95;;;;;;;;;;5010693;28;20029;-50
2022/01/27 12:54:58;;;;;;;11.48;6.07;;;;;;;;;;5006353;28;20029;-48
2022/01/27 12:57:28;;;;;;;12.43;5.75;;;;;;;;;;5008976;28;20026;-53
2022/01/27 12:59:56;;;;;;;11.07;5.68;;;;;;;;;;5010152;28;20037;-52
2022/01/27 13:02:23;;;;;;;12.75;6.43;;;;;;;;;;5009088;28;20022;-47
2022/01/27 13:04:50;;;;;;;9.25;5.57;;;;;;;;;;5010010;28;20032;-52
2022/01/27 13:07:19;;;;;;;12.25;5.88;;;;;;;;;;5008415;28;20084;-53
2022/01/27 13:09:53;;;;;;;10.85;5.78;;;;;;;;;;5008184;28;20041;-54
2022/01/27 13:12:23;;;;;;;12.13;6.20;;;;;;;;;;5009393;28;20323;-52
2022/01/27 13:15:01;;;;;;;13.38;6.28;;;;;;;;;;5007991;28;20030;-54
2022/01/27 13:17:33;;;;;;;12.18;6.47;;;;;;;;;;5008344;28;20026;-49
2022/01/27 13:20:22;;;;;;;14.30;6.75;;;;;;;;;;5005824;28;20038;-49
2022/01/27 13:22:52;;;;;;;13.93;6.72;;;;;;;;;;5008741;28;20505;-49
2022/01/27 13:25:20;;;;;;;12.55;6.82;;;;;;;;;;5008126;28;20920;-50
2022/01/27 13:28:01;;;;;;;16.42;7.35;;;;;;;;;;5011426;28;20026;-52
2022/01/27 13:30:27;;;;;;;14.88;6.80;;;;;;;;;;5006998;28;20037;-48
2022/01/27 13:32:52;;;;;;;15.35;7.28;;;;;;;;;;5006719;28;20486;-49
2022/01/27 13:35:18;;;;;;;13.68;7.43;;;;;;;;;;5008045;28;20394;-51
2022/01/27 13:38:07;;;;;;;12.40;6.95;;;;;;;;;;1720774;28;10023659;-46
2022/01/27 13:43:17;;;;;;;13.93;6.85;;;;;;;;;;5009000;28;20179;-49
2022/01/27 13:45:42;;;;;;;13.55;6.65;;;;;;;;;;5007663;28;20067;-49
2022/01/27 13:48:21;;;;;;;15.13;6.90;;;;;;;;;;5008041;28;20433;-49
2022/01/27 13:50:59;;;;;;;14.93;6.53;;;;;;;;;;5009152;28;20029;-53
2022/01/27 13:53:25;;;;;;;12.02;6.47;;;;;;;;;;5008690;28;20034;-49
2022/01/27 13:56:00;;;;;;;13.52;6.78;;;;;;;;;;5010574;28;20513;-51
2022/01/27 13:58:28;;;;;;;12.68;6.63;;;;;;;;;;5013000;28;20122;-51
2022/01/27 14:01:05;;;;;;;11.32;6.35;;;;;;;;;;4995194;28;20062;-50
2022/01/27 14:03:43;;;;;;;14.13;6.25;;;;;;;;;;5011314;28;20100;-50
2022/01/27 14:06:09;;;;;;;13.90;6.20;;;;;;;;;;5014755;28;20458;-51
2022/01/27 14:08:40;;;;;;;17.65;7.53;;;;;;;;;;5012547;28;20131;-49
2022/01/27 14:11:07;;;;;;;12.63;6.63;;;;;;;;;;5012877;28;20033;-51
2022/01/27 14:13:33;;;;;;;11.18;5.82;;;;;;;;;;5011329;28;20046;-52
2022/01/27 14:15:58;;;;;;;12.80;5.93;;;;;;;;;;5010132;28;20041;-51
2022/01/27 14:18:38;;;;;;;11.50;6.07;;;;;;;;;;5011473;28;20407;-49
2022/01/27 14:21:05;;;;;;;11.65;5.85;;;;;;;;;;5012616;28;20037;-52
2022/01/27 14:29:29;;;;;;;13.75;6.07;;;;;;;;;;5011855;28;20128;-49
2022/01/27 14:31:55;;;;;;;15.77;6.57;;;;;;;;;;4993042;28;20574;-54
2022/01/27 14:34:31;;;;;;;10.68;6.15;;;;;;;;;;4992368;28;20108;-51
2022/01/27 14:36:57;;;;;;;12.05;5.72;;;;;;;;;;5010474;28;20097;-54
2022/01/27 14:39:23;;;;;;;16.30;5.40;;;;;;;;;;5012498;28;20041;-48
2022/01/27 14:41:49;;;;;;;13.43;5.65;;;;;;;;;;5011488;28;20056;-50
2022/01/27 14:44:14;;;;;;;9.90;5.07;;;;;;;;;;5012709;28;20037;-49
2022/01/27 14:46:42;;;;;;;10.82;5.13;;;;;;;;;;5011106;28;20566;-50
2022/01/27 14:49:10;;;;;;;12.23;5.57;;;;;;;;;;5013297;28;20049;-51
2022/01/27 14:51:36;;;;;;;10.80;5.80;;;;;;;;;;5010456;28;20095;-49
2022/01/27 14:54:05;;;;;;;10.90;4.82;;;;;;;;;;5012046;28;20056;-51
2022/01/27 14:56:32;;;;;;;10.15;5.47;;;;;;;;;;5012368;28;20061;-48
2022/01/27 14:58:58;;;;;;;10.48;5.60;;;;;;;;;;5011940;28;20044;-48
2022/01/27 15:01:26;;;;;;;10.02;5.25;;;;;;;;;;5014667;28;20030;-48
2022/01/27 15:03:52;;;;;;;11.48;5.60;;;;;;;;;;5011590;28;20030;-51
2022/01/27 15:06:18;;;;;;;10.38;5.07;;;;;;;;;;5009848;28;20041;-47
2022/01/27 15:08:43;;;;;;;14.30;6.00;;;;;;;;;;5008603;28;20048;-48
2022/01/27 15:11:09;;;;;;;12.00;5.95;;;;;;;;;;5012507;28;20057;-48
2022/01/27 15:13:41;;;;;;;10.82;5.43;;;;;;;;;;5011325;28;20441;-47
2022/01/27 15:18:58;;;;;;;11.65;5.10;;;;;;;;;;5012104;28;20044;-48
2022/01/27 15:21:24;;;;;;;12.20;5.65;;;;;;;;;;5011930;28;20510;-50
2022/01/27 15:23:49;;;;;;;9.98;5.30;;;;;;;;;;5011147;28;20034;-51
2022/01/27 15:26:16;;;;;;;8.82;4.97;;;;;;;;;;5010826;28;20037;-47
2022/01/27 15:28:42;;;;;;;9.75;5.43;;;;;;;;;;5013125;28;20034;-48
2022/01/27 15:31:07;;;;;;;11.02;5.25;;;;;;;;;;5010936;28;20411;-48
2022/01/27 15:33:34;;;;;;;9.63;5.03;;;;;;;;;;5010045;28;20034;-52
2022/01/27 15:36:03;;;;;;;9.05;4.28;;;;;;;;;;5013134;28;20036;-53
2022/01/27 15:38:33;;;;;;;6.70;3.97;;;;;;;;;;5012866;28;20109;-49
2022/01/27 15:40:59;;;;;;;8.13;4.45;;;;;;;;;;5008385;28;20406;-48
2022/01/27 15:43:24;;;;;;;8.85;3.88;;;;;;;;;;5010725;28;20033;-49